createdAt,value
2018-09-20T00:01:46.669Z,2.90
2018-09-20T00:04:16.850Z,3.80
2018-09-20T00:06:46.297Z,3.63
2018-09-20T00:09:15.455Z,3.00
2018-09-20T00:11:44.578Z,3.40
2018-09-20T00:14:14.390Z,3.17
2018-09-20T00:16:43.871Z,3.50
2018-09-20T00:19:13.668Z,3.53
2018-09-20T00:21:42.734Z,3.40
2018-09-20T00:24:11.571Z,3.60
2018-09-20T00:26:41.271Z,3.47
2018-09-20T00:29:10.555Z,3.97
2018-09-20T00:31:39.869Z,3.00
2018-09-20T00:34:08.943Z,3.20
2018-09-20T00:36:38.153Z,3.00
2018-09-20T00:39:13.528Z,3.20
2018-09-20T00:41:43.255Z,3.30
2018-09-20T00:44:12.876Z,2.97
2018-09-20T00:46:42.005Z,3.30
2018-09-20T00:49:11.401Z,3.60
2018-09-20T00:51:41.216Z,3.60
2018-09-20T00:54:10.434Z,3.90
2018-09-20T00:56:39.373Z,3.00
2018-09-20T00:59:08.506Z,3.53
2018-09-20T01:01:37.513Z,3.10
2018-09-20T01:04:07.011Z,3.00
2018-09-20T01:06:36.273Z,4.00
2018-09-20T01:09:08.166Z,3.33
2018-09-20T01:11:37.630Z,4.03
2018-09-20T01:14:06.502Z,2.87
2018-09-20T01:16:35.663Z,3.80
2018-09-20T01:19:04.965Z,3.57
2018-09-20T01:21:34.045Z,3.80
2018-09-20T01:24:03.282Z,3.73
2018-09-20T01:26:32.100Z,3.07
2018-09-20T01:29:01.209Z,3.33
2018-09-20T01:31:30.493Z,3.13
2018-09-20T01:33:59.743Z,3.80
2018-09-20T01:36:29.034Z,3.67
2018-09-20T01:38:58.054Z,3.40
2018-09-20T01:41:27.071Z,4.00
2018-09-20T01:43:56.139Z,3.13
2018-09-20T01:46:50.392Z,4.07
2018-09-20T01:49:19.820Z,3.77
2018-09-20T01:51:48.798Z,3.60
2018-09-20T01:54:17.725Z,3.77
2018-09-20T01:56:46.601Z,3.20
2018-09-20T01:59:15.527Z,3.43
2018-09-20T02:01:44.667Z,3.87
2018-09-20T02:04:14.154Z,3.73
2018-09-20T02:06:43.277Z,3.13
2018-09-20T02:09:12.386Z,3.23
2018-09-20T02:11:42.018Z,3.13
2018-09-20T02:14:10.655Z,4.30
2018-09-20T02:16:39.461Z,4.40
2018-09-20T02:19:08.350Z,3.90
2018-09-20T02:21:37.573Z,3.70
2018-09-20T02:24:06.317Z,3.37
2018-09-20T02:26:35.119Z,3.60
2018-09-20T02:29:04.129Z,3.27
2018-09-20T02:31:32.880Z,3.47
2018-09-20T02:34:01.446Z,3.97
2018-09-20T02:36:30.657Z,3.30
2018-09-20T02:38:59.366Z,3.37
2018-09-20T02:41:28.020Z,3.27
2018-09-20T02:43:56.739Z,4.00
2018-09-20T02:46:25.460Z,4.07
2018-09-20T02:48:54.067Z,3.13
2018-09-20T02:51:22.821Z,3.63
2018-09-20T02:53:51.805Z,3.57
2018-09-20T02:56:20.957Z,3.90
2018-09-20T02:58:50.524Z,3.50
2018-09-20T03:01:19.551Z,3.87
2018-09-20T03:03:48.920Z,3.90
2018-09-20T03:06:18.375Z,3.57
2018-09-20T03:08:47.748Z,3.27
2018-09-20T03:11:18.066Z,3.40
2018-09-20T03:13:46.782Z,3.53
2018-09-20T03:16:15.426Z,3.83
2018-09-20T03:18:44.241Z,3.77
2018-09-20T03:21:13.010Z,3.53
2018-09-20T03:23:42.031Z,3.83
2018-09-20T03:26:11.703Z,3.10
2018-09-20T03:28:40.510Z,2.67
2018-09-20T03:31:09.491Z,3.63
2018-09-20T03:33:38.141Z,3.20
2018-09-20T03:36:07.122Z,3.33
2018-09-20T03:38:35.680Z,3.30
2018-09-20T03:41:04.251Z,3.47
2018-09-20T03:43:33.631Z,4.50
2018-09-20T03:46:02.323Z,3.93
2018-09-20T03:48:33.146Z,3.73
2018-09-20T03:51:01.807Z,3.73
2018-09-20T03:53:30.753Z,3.20
2018-09-20T03:55:59.633Z,3.27
2018-09-20T03:58:28.278Z,3.80
2018-09-20T04:00:57.024Z,3.80
2018-09-20T04:03:25.771Z,3.20
2018-09-20T04:05:54.789Z,3.80
2018-09-20T04:08:23.954Z,4.30
2018-09-20T04:10:53.253Z,4.10
2018-09-20T04:13:23.200Z,3.40
2018-09-20T04:15:52.047Z,3.87
2018-09-20T04:18:22.045Z,3.83
2018-09-20T04:20:51.141Z,4.00
2018-09-20T04:23:19.923Z,3.73
2018-09-20T04:25:49.071Z,3.73
2018-09-20T04:28:18.536Z,3.77
2018-09-20T04:30:47.616Z,4.00
2018-09-20T04:33:16.545Z,4.17
2018-09-20T04:35:45.732Z,3.87
2018-09-20T04:38:14.495Z,3.77
2018-09-20T04:40:44.314Z,4.70
2018-09-20T04:43:13.256Z,3.77
2018-09-20T04:45:43.037Z,3.80
2018-09-20T04:48:12.110Z,4.30
2018-09-20T04:50:42.789Z,4.13
2018-09-20T04:53:12.601Z,4.20
2018-09-20T04:55:43.742Z,3.43
2018-09-20T04:58:13.950Z,4.10
2018-09-20T05:00:43.404Z,4.00
2018-09-20T05:03:12.956Z,3.83
2018-09-20T05:05:44.064Z,4.10
2018-09-20T05:08:13.713Z,3.73
2018-09-20T05:10:45.089Z,3.87
2018-09-20T05:13:15.200Z,4.67
2018-09-20T05:15:45.386Z,3.90
2018-09-20T05:18:26.758Z,4.13
2018-09-20T05:21:01.456Z,5.17
2018-09-20T05:26:17.632Z,4.30
2018-09-20T05:28:48.201Z,4.87
2018-09-20T05:36:49.069Z,5.00
2018-09-20T05:39:23.051Z,4.73
2018-09-20T05:41:53.417Z,5.17
2018-09-20T05:44:26.911Z,5.83
2018-09-20T05:46:56.953Z,5.60
2018-09-20T05:49:25.848Z,5.00
2018-09-20T05:51:56.562Z,5.40
2018-09-20T05:54:26.471Z,5.37
2018-09-20T05:56:55.461Z,5.97
2018-09-20T05:59:24.221Z,6.40
2018-09-20T06:01:53.042Z,4.93
2018-09-20T06:04:21.612Z,5.63
2018-09-20T06:06:50.450Z,5.80
2018-09-20T06:09:19.437Z,5.13
2018-09-20T06:11:48.350Z,5.57
2018-09-20T06:14:41.713Z,5.50
2018-09-20T06:20:05.396Z,4.73
2018-09-20T06:22:35.397Z,3.80
2018-09-20T06:25:04.202Z,4.60
2018-09-20T06:27:34.263Z,4.43
2018-09-20T06:30:05.434Z,4.17
2018-09-20T06:32:36.771Z,4.80
2018-09-20T06:35:09.180Z,4.77
2018-09-20T06:37:41.575Z,5.67
2018-09-20T06:40:10.254Z,4.73
2018-09-20T06:42:39.626Z,5.47
2018-09-20T06:45:09.091Z,4.80
2018-09-20T06:48:19.955Z,4.90
2018-09-20T06:50:50.947Z,5.63
2018-09-20T06:53:19.756Z,5.70
2018-09-20T06:55:48.860Z,5.90
2018-09-20T06:58:17.620Z,6.03
2018-09-20T07:00:46.514Z,4.70
2018-09-20T07:03:17.564Z,6.30
2018-09-20T07:05:48.118Z,5.67
2018-09-20T07:08:18.407Z,5.43
2018-09-20T07:10:47.329Z,5.23
2018-09-20T07:13:17.027Z,4.63
2018-09-20T07:15:45.898Z,6.37
2018-09-20T07:18:14.498Z,5.07
2018-09-20T07:20:43.360Z,5.33
2018-09-20T07:23:12.751Z,5.33
2018-09-20T07:25:42.095Z,4.90
2018-09-20T07:28:11.866Z,5.33
2018-09-20T07:30:41.340Z,5.13
2018-09-20T07:33:10.873Z,6.30
2018-09-20T07:35:40.265Z,5.20
2018-09-20T07:38:09.757Z,5.40
2018-09-20T07:40:39.863Z,5.20
2018-09-20T07:43:09.704Z,5.37
2018-09-20T07:45:38.515Z,4.67
2018-09-20T07:48:08.111Z,5.23
2018-09-20T07:50:37.113Z,4.57
2018-09-20T07:53:06.222Z,5.40
2018-09-20T07:55:36.101Z,4.10
2018-09-20T07:58:05.360Z,4.57
2018-09-20T08:00:34.714Z,4.90
2018-09-20T08:03:04.579Z,5.17
2018-09-20T08:05:33.797Z,4.10
2018-09-20T08:08:03.292Z,4.40
2018-09-20T08:10:34.079Z,4.83
2018-09-20T08:13:03.082Z,4.27
2018-09-20T08:15:33.669Z,4.07
2018-09-20T08:18:02.636Z,5.10
2018-09-20T08:20:31.992Z,4.63
2018-09-20T08:23:02.391Z,3.87
2018-09-20T08:25:31.710Z,4.90
2018-09-20T08:28:00.556Z,3.83
2018-09-20T08:30:29.221Z,3.90
2018-09-20T08:33:00.697Z,3.57
2018-09-20T08:35:30.437Z,4.47
2018-09-20T08:38:00.071Z,3.87
2018-09-20T08:40:30.180Z,4.10
2018-09-20T08:43:23.345Z,3.87
2018-09-20T08:45:54.369Z,4.37
2018-09-20T08:48:23.538Z,3.50
2018-09-20T08:50:55.303Z,4.00
2018-09-20T08:53:24.317Z,3.83
2018-09-20T08:55:54.954Z,3.63
2018-09-20T08:58:25.062Z,3.97
2018-09-20T09:00:54.289Z,3.80
2018-09-20T09:03:23.396Z,4.17
2018-09-20T09:05:52.375Z,3.80
2018-09-20T09:08:22.078Z,4.47
2018-09-20T09:10:56.751Z,3.40
2018-09-20T09:13:26.194Z,3.27
2018-09-20T09:15:55.631Z,3.80
2018-09-20T09:18:25.063Z,3.70
2018-09-20T09:20:54.528Z,3.77
2018-09-20T09:23:24.158Z,4.67
2018-09-20T09:25:52.962Z,3.77
2018-09-20T09:28:22.419Z,3.30
2018-09-20T09:30:51.248Z,4.03
2018-09-20T09:33:20.544Z,3.80
2018-09-20T09:35:49.737Z,3.97
2018-09-20T09:38:19.054Z,3.63
2018-09-20T09:40:48.599Z,3.60
2018-09-20T09:43:17.734Z,4.07
2018-09-20T09:45:46.588Z,4.00
2018-09-20T09:48:15.434Z,3.53
2018-09-20T09:50:44.662Z,3.50
2018-09-20T09:53:13.643Z,4.80
2018-09-20T09:55:42.406Z,4.10
2018-09-20T09:58:12.263Z,4.93
2018-09-20T10:00:42.270Z,4.20
2018-09-20T10:03:11.391Z,4.50
2018-09-20T10:05:42.441Z,4.53
2018-09-20T10:08:11.503Z,4.57
2018-09-20T10:10:40.320Z,4.13
2018-09-20T10:13:09.457Z,4.00
2018-09-20T10:15:38.873Z,4.47
2018-09-20T10:18:08.494Z,4.33
2018-09-20T10:20:37.660Z,3.87
2018-09-20T10:23:06.558Z,3.73
2018-09-20T10:25:35.343Z,3.73
2018-09-20T10:28:04.703Z,3.77
2018-09-20T10:30:35.375Z,3.73
2018-09-20T10:33:08.258Z,3.03
2018-09-20T10:35:37.716Z,3.50
2018-09-20T10:38:07.395Z,3.77
2018-09-20T10:40:36.484Z,3.97
2018-09-20T10:43:06.648Z,3.97
2018-09-20T10:45:35.919Z,3.80
2018-09-20T10:48:07.391Z,3.10
2018-09-20T10:50:36.640Z,2.93
2018-09-20T10:53:05.838Z,3.10
2018-09-20T10:55:35.305Z,3.10
2018-09-20T10:58:04.543Z,2.90
2018-09-20T11:00:33.789Z,3.87
2018-09-20T11:03:02.586Z,2.73
2018-09-20T11:05:31.598Z,3.77
2018-09-20T11:08:00.845Z,2.83
2018-09-20T11:10:29.804Z,2.87
2018-09-20T11:12:58.895Z,2.80
2018-09-20T11:15:28.229Z,2.80
2018-09-20T11:17:57.077Z,2.23
2018-09-20T11:20:26.513Z,2.40
2018-09-20T11:22:55.589Z,2.53
2018-09-20T11:25:25.774Z,2.83
2018-09-20T11:27:55.844Z,2.50
2018-09-20T11:30:24.708Z,2.30
2018-09-20T11:32:53.534Z,2.97
2018-09-20T11:35:22.967Z,2.70
2018-09-20T11:37:51.873Z,2.73
2018-09-20T11:40:20.717Z,2.97
2018-09-20T11:42:49.855Z,2.60
2018-09-20T11:45:18.776Z,2.90
2018-09-20T11:47:48.106Z,2.40
2018-09-20T11:50:16.509Z,2.30
2018-09-20T11:52:45.436Z,3.13
2018-09-20T11:55:14.173Z,2.67
2018-09-20T11:57:43.616Z,2.60
2018-09-20T12:00:16.179Z,2.73
2018-09-20T12:02:45.961Z,2.80
2018-09-20T12:05:16.917Z,2.77
2018-09-20T12:07:47.106Z,2.50
2018-09-20T12:10:16.723Z,2.17
2018-09-20T12:12:46.640Z,3.00
2018-09-20T12:15:15.730Z,2.57
2018-09-20T12:17:44.872Z,3.23
2018-09-20T12:20:13.589Z,2.40
2018-09-20T12:22:43.682Z,2.53
2018-09-20T12:25:12.666Z,2.43
2018-09-20T12:27:41.498Z,2.50
2018-09-20T12:30:13.899Z,2.50
2018-09-20T12:32:43.007Z,2.97
2018-09-20T12:35:11.816Z,3.23
2018-09-20T12:37:42.891Z,2.60
2018-09-20T12:40:11.932Z,3.00
2018-09-20T12:42:41.339Z,2.67
2018-09-20T12:45:11.529Z,2.53
2018-09-20T12:47:41.251Z,3.10
2018-09-20T12:50:10.846Z,3.20
2018-09-20T12:52:40.799Z,2.80
2018-09-20T12:55:09.990Z,3.30
2018-09-20T12:57:39.492Z,3.40
2018-09-20T13:00:10.983Z,2.53
2018-09-20T13:02:40.038Z,3.30
2018-09-20T13:05:09.551Z,3.23
2018-09-20T13:07:42.290Z,2.43
2018-09-20T13:10:11.125Z,3.00
2018-09-20T13:12:40.885Z,2.73
2018-09-20T13:15:11.108Z,3.00
2018-09-20T13:17:40.720Z,2.80
2018-09-20T13:20:11.216Z,3.13
2018-09-20T13:22:41.803Z,3.10
2018-09-20T13:25:11.418Z,2.80
2018-09-20T13:27:41.653Z,2.97
2018-09-20T13:30:10.976Z,2.93
2018-09-20T13:32:39.958Z,2.83
2018-09-20T13:35:09.081Z,2.47
2018-09-20T13:37:38.488Z,2.63
2018-09-20T13:40:09.404Z,2.70
2018-09-20T13:42:38.389Z,2.77
2018-09-20T13:45:07.393Z,2.47
2018-09-20T13:47:36.595Z,2.70
2018-09-20T13:50:19.159Z,3.10
2018-09-20T13:52:50.754Z,3.17
2018-09-20T13:55:20.060Z,2.80
2018-09-20T13:57:49.696Z,2.47
2018-09-20T14:00:19.236Z,2.93
2018-09-20T14:02:49.938Z,2.57
2018-09-20T14:05:19.087Z,2.83
2018-09-20T14:07:48.949Z,2.57
2018-09-20T14:10:18.130Z,2.77
2018-09-20T14:12:48.721Z,2.80
2018-09-20T14:15:17.887Z,2.97
2018-09-20T14:17:46.843Z,2.63
2018-09-20T14:20:15.968Z,2.70
2018-09-20T14:22:45.105Z,2.77
2018-09-20T14:25:14.468Z,2.80
2018-09-20T14:27:44.595Z,2.80
2018-09-20T14:30:13.978Z,2.83
2018-09-20T14:32:44.621Z,2.63
2018-09-20T14:35:14.555Z,3.10
2018-09-20T14:37:44.723Z,2.37
2018-09-20T14:40:14.623Z,3.00
2018-09-20T14:42:44.314Z,3.30
2018-09-20T14:45:14.181Z,2.90
2018-09-20T14:47:43.715Z,3.03
2018-09-20T14:50:13.289Z,2.50
2018-09-20T14:52:43.209Z,3.37
2018-09-20T14:55:12.128Z,2.77
2018-09-20T14:57:41.522Z,3.37
2018-09-20T15:00:14.777Z,3.30
2018-09-20T15:02:43.664Z,3.50
2018-09-20T15:05:12.983Z,2.77
2018-09-20T15:07:42.634Z,3.13
2018-09-20T15:10:11.519Z,2.97
2018-09-20T15:12:42.835Z,2.70
2018-09-20T15:15:12.144Z,2.63
2018-09-20T15:17:41.828Z,2.80
2018-09-20T15:20:13.332Z,2.40
2018-09-20T15:22:43.226Z,3.10
2018-09-20T15:25:14.811Z,2.53
2018-09-20T15:27:46.121Z,2.63
2018-09-20T15:30:16.422Z,2.67
2018-09-20T15:32:47.509Z,3.07
2018-09-20T15:35:16.838Z,2.50
2018-09-20T15:37:45.822Z,2.80
2018-09-20T15:40:15.081Z,2.63
2018-09-20T15:42:44.932Z,3.10
2018-09-20T15:45:14.470Z,2.70
2018-09-20T15:47:43.445Z,2.47
2018-09-20T15:50:12.394Z,2.43
2018-09-20T15:52:41.441Z,3.20
2018-09-20T15:55:10.395Z,2.67
2018-09-20T15:57:40.245Z,2.97
2018-09-20T16:00:09.393Z,2.43
2018-09-20T16:02:38.295Z,2.43
2018-09-20T16:05:07.181Z,2.77
2018-09-20T16:07:35.952Z,2.27
2018-09-20T16:10:06.226Z,2.70
2018-09-20T16:12:37.572Z,3.23
2018-09-20T16:15:08.399Z,2.47
2018-09-20T16:17:37.370Z,2.50
2018-09-20T16:20:07.086Z,2.73
2018-09-20T16:22:36.255Z,3.00
2018-09-20T16:25:06.322Z,2.67
2018-09-20T16:27:36.314Z,2.67
2018-09-20T16:30:25.645Z,3.27
2018-09-20T16:35:11.093Z,2.60
2018-09-20T16:38:00.741Z,2.70
2018-09-20T16:40:33.095Z,3.87
2018-09-20T16:43:02.226Z,3.03
2018-09-20T16:45:31.728Z,2.80
2018-09-20T16:48:00.612Z,2.50
2018-09-20T16:50:31.305Z,3.13
2018-09-20T16:53:00.307Z,2.83
2018-09-20T16:55:29.451Z,2.90
2018-09-20T16:57:58.228Z,2.93
2018-09-20T17:00:27.745Z,2.83
2018-09-20T17:02:57.520Z,3.13
2018-09-20T17:05:26.873Z,2.70
2018-09-20T17:07:55.812Z,2.80
2018-09-20T17:10:25.253Z,3.00
2018-09-20T17:12:56.327Z,3.10
2018-09-20T17:15:25.110Z,2.83
2018-09-20T17:17:53.985Z,3.07
2018-09-20T17:20:22.783Z,3.00
2018-09-20T17:22:52.213Z,3.40
2018-09-20T17:25:21.177Z,4.13
2018-09-20T17:27:51.150Z,3.93
2018-09-20T17:30:23.371Z,3.07
2018-09-20T17:32:52.989Z,3.27
2018-09-20T17:35:22.467Z,3.03
2018-09-20T17:37:52.780Z,3.33
2018-09-20T17:40:27.556Z,3.37
2018-09-20T17:43:00.922Z,3.20
2018-09-20T17:45:31.217Z,4.27
2018-09-20T17:48:00.361Z,3.23
2018-09-20T17:50:29.131Z,3.07
2018-09-20T17:52:58.980Z,3.63
2018-09-20T17:55:28.576Z,2.77
2018-09-20T17:57:59.643Z,3.20
2018-09-20T18:00:29.195Z,3.00
2018-09-20T18:02:58.561Z,3.53
2018-09-20T18:05:27.629Z,3.57
2018-09-20T18:07:56.671Z,4.00
2018-09-20T18:10:25.600Z,2.93
2018-09-20T18:12:54.564Z,3.40
2018-09-20T18:15:23.428Z,3.37
2018-09-20T18:17:52.245Z,4.00
2018-09-20T18:20:21.092Z,3.43
2018-09-20T18:22:50.498Z,3.13
2018-09-20T18:25:19.883Z,3.20
2018-09-20T18:27:49.390Z,3.53
2018-09-20T18:30:18.600Z,3.20
2018-09-20T18:32:47.329Z,3.10
2018-09-20T18:35:16.499Z,3.20
2018-09-20T18:37:45.769Z,3.07
2018-09-20T18:40:14.758Z,3.60
2018-09-20T18:42:43.744Z,2.90
2018-09-20T18:45:13.067Z,2.90
2018-09-20T18:47:41.978Z,2.63
2018-09-20T18:50:12.258Z,3.37
2018-09-20T18:52:42.149Z,3.23
2018-09-20T18:55:11.085Z,3.77
2018-09-20T18:57:42.162Z,3.47
2018-09-20T19:00:11.462Z,3.73
2018-09-20T19:02:40.830Z,3.40
2018-09-20T19:05:13.609Z,3.40
2018-09-20T19:07:43.343Z,3.43
2018-09-20T19:10:12.751Z,3.03
2018-09-20T19:12:42.294Z,3.03
2018-09-20T19:15:11.651Z,2.70
2018-09-20T19:17:40.963Z,3.50
2018-09-20T19:20:11.251Z,3.43
2018-09-20T19:22:40.422Z,3.13
2018-09-20T19:25:09.668Z,3.13
2018-09-20T19:27:40.468Z,3.17
2018-09-20T19:30:09.741Z,3.80
2018-09-20T19:32:38.832Z,3.40
2018-09-20T19:35:08.627Z,3.67
2018-09-20T19:37:37.700Z,3.33
2018-09-20T19:40:06.766Z,2.80
2018-09-20T19:42:36.191Z,2.83
2018-09-20T19:45:05.829Z,3.13
2018-09-20T19:47:35.041Z,3.33
2018-09-20T19:50:04.139Z,2.80
2018-09-20T19:52:32.869Z,3.00
2018-09-20T19:55:02.048Z,3.00
2018-09-20T19:57:31.256Z,2.97
2018-09-20T20:00:00.475Z,2.63
2018-09-20T20:02:30.811Z,3.20
2018-09-20T20:05:00.134Z,3.10
2018-09-20T20:07:30.718Z,2.67
2018-09-20T20:09:59.658Z,2.50
2018-09-20T20:12:33.799Z,2.70
2018-09-20T20:15:03.274Z,2.77
2018-09-20T20:17:33.953Z,3.43
2018-09-20T20:20:04.325Z,3.20
2018-09-20T20:22:34.341Z,3.30
2018-09-20T20:25:03.931Z,3.10
2018-09-20T20:27:34.479Z,2.87
2018-09-20T20:30:05.377Z,2.70
2018-09-20T20:32:35.035Z,3.17
2018-09-20T20:35:04.044Z,3.23
2018-09-20T20:37:33.229Z,3.00
2018-09-20T20:40:02.394Z,3.67
2018-09-20T20:42:31.644Z,2.90
2018-09-20T20:45:01.214Z,2.93
2018-09-20T20:47:30.325Z,3.67
2018-09-20T20:50:00.459Z,3.70
2018-09-20T20:52:29.794Z,2.60
2018-09-20T20:54:59.632Z,2.70
2018-09-20T20:57:30.356Z,3.00
2018-09-20T21:00:01.137Z,3.07
2018-09-20T21:02:31.355Z,2.97
2018-09-20T21:05:02.120Z,2.80
2018-09-20T21:07:32.117Z,2.37
2018-09-20T21:10:02.100Z,2.87
2018-09-20T21:12:31.443Z,2.60
2018-09-20T21:15:01.589Z,3.30
2018-09-20T21:17:32.182Z,2.30
2018-09-20T21:20:02.112Z,2.50
2018-09-20T21:22:32.183Z,2.50
2018-09-20T21:25:02.889Z,2.80
2018-09-20T21:27:33.043Z,2.57
2018-09-20T21:30:02.650Z,2.40
2018-09-20T21:32:32.107Z,2.77
2018-09-20T21:35:02.859Z,3.10
2018-09-20T21:37:33.231Z,2.47
2018-09-20T21:40:02.313Z,2.87
2018-09-20T21:42:31.203Z,2.50
2018-09-20T21:45:00.027Z,2.50
2018-09-20T21:47:29.621Z,2.70
2018-09-20T21:50:01.682Z,2.80
2018-09-20T21:52:42.521Z,2.70
2018-09-20T21:55:13.290Z,2.50
2018-09-20T21:57:45.056Z,2.33
2018-09-20T22:00:14.588Z,3.00
2018-09-20T22:02:48.734Z,2.80
2018-09-20T22:05:18.958Z,2.10
2018-09-20T22:07:48.996Z,2.67
2018-09-20T22:10:17.955Z,2.43
2018-09-20T22:12:46.854Z,3.00
2018-09-20T22:15:26.113Z,2.63
2018-09-20T22:17:56.392Z,2.80
2018-09-20T22:20:27.353Z,2.60
2018-09-20T22:22:56.233Z,2.70
2018-09-20T22:25:25.504Z,2.47
2018-09-20T22:27:54.924Z,2.70
2018-09-20T22:30:23.850Z,2.13
2018-09-20T22:32:54.940Z,2.83
2018-09-20T22:35:24.160Z,2.73
2018-09-20T22:37:53.292Z,2.83
2018-09-20T22:40:21.933Z,2.40
2018-09-20T22:42:51.074Z,2.30
2018-09-20T22:45:19.731Z,2.30
2018-09-20T22:47:48.765Z,2.77
2018-09-20T22:50:17.868Z,2.20
2018-09-20T22:52:48.158Z,2.80
2018-09-20T22:55:18.229Z,2.47
2018-09-20T22:57:47.299Z,2.83
2018-09-20T23:00:20.410Z,2.47
2018-09-20T23:02:51.760Z,2.80
2018-09-20T23:05:21.814Z,2.50
2018-09-20T23:07:53.909Z,2.23
2018-09-20T23:10:22.984Z,3.00
2018-09-20T23:12:51.740Z,2.17
2018-09-20T23:15:20.620Z,2.27
2018-09-20T23:17:50.425Z,2.47
2018-09-20T23:20:21.176Z,2.10
2018-09-20T23:22:50.477Z,2.87
2018-09-20T23:25:19.518Z,2.43
2018-09-20T23:27:48.517Z,3.00
2018-09-20T23:30:17.362Z,2.30
2018-09-20T23:32:46.585Z,2.60
2018-09-20T23:35:15.542Z,3.20
2018-09-20T23:37:44.655Z,2.67
2018-09-20T23:40:13.625Z,2.37
2018-09-20T23:42:42.708Z,2.30
2018-09-20T23:45:13.021Z,2.57
2018-09-20T23:47:42.721Z,2.53
2018-09-20T23:50:12.228Z,2.33
2018-09-20T23:52:41.872Z,2.80
2018-09-20T23:55:10.985Z,2.40
2018-09-20T23:57:40.174Z,2.40
